Flight Track Log - Related Links

Times and Time Zones

All times are in EST time to prevent confusion due to time zone crossing. See the N830QS flight status page for this flight to view local times or setup timezone preferences in your user account.

Time Position Orientation Groundspeed Altitude Reporting Facility
EST Latitude Longitude Course Direction KTS MPH feet Rate Location/Type
Sun 07:05:03 PM 29.9864 -90.2511 196° South 170 196 400  Level Houston Center
Sun 07:05:42 PM 29.9603 -90.2600 196° South 177 204 2,300 3,505 Climbing Houston Center
Sun 07:06:44 PM 29.9481 -90.3214 257° West 264 304 6,300 3,726 Climbing Houston Center
Sun 07:07:46 PM 30.0064 -90.3681 325° Northwest 257 296 10,000 3,581 Climbing Houston Center
Sun 07:08:48 PM 30.0683 -90.4197 324° Northwest 269 310 13,700 3,435 Climbing Houston Center
Sun 07:09:50 PM 30.1442 -90.4850 323° Northwest 279 321 17,100 2,952 Climbing Houston Center
Sun 07:10:52 PM 30.2106 -90.5453 322° Northwest 295 339 19,800 2,565 Climbing Houston Center
Sun 07:11:54 PM 30.2808 -90.6067 323° Northwest 307 353 22,400 1,935 Climbing Houston Center
Sun 07:12:56 PM 30.3567 -90.6728 323° Northwest 324 373 23,800 1,512 Climbing Houston Center
Sun 07:13:57 PM 30.4258 -90.7594 313° West 365 420 25,500 1,561 Climbing Houston Center
Sun 07:14:59 PM 30.4742 -90.8647 298° West 370 426 27,000 1,403 Climbing Houston Center
Sun 07:16:01 PM 30.5228 -90.9742 297° West 377 434 28,400 2,032 Climbing Houston Center
Sun 07:17:03 PM 30.5808 -91.1025 298° West 376 433 31,200 1,742 Climbing Houston Center
Sun 07:18:05 PM 30.6267 -91.2089 297° West 370 426 32,000 387 Climbing Houston Center
Sun 07:19:07 PM 30.6767 -91.3250 297° West 392 451 32,000  Level Houston Center
Sun 07:20:09 PM 30.7289 -91.4419 297° West 407 468 32,000  Level Houston Center
Sun 07:21:10 PM 30.7797 -91.5547 298° West 400 460 32,000  Level Houston Center
Sun 07:22:12 PM 30.8289 -91.6675 297° West 394 453 32,000  Level Houston Center
Sun 07:23:15 PM 30.8875 -91.8022 297° West 391 450 32,000  Level Houston Center
Sun 07:24:16 PM 30.9347 -91.9094 297° West 378 435 32,000  Level Houston Center
Sun 07:25:18 PM 30.9803 -92.0147 297° West 367 422 32,000  Level Houston Center
Sun 07:26:20 PM 31.0300 -92.1286 297° West 361 415 32,000  Level Houston Center
Sun 07:27:22 PM 31.0747 -92.2306 297° West 356 410 32,000  Level Houston Center
Sun 07:28:24 PM 31.1189 -92.3336 297° West 356 410 32,000  Level Houston Center
Sun 07:29:26 PM 31.1628 -92.4358 297° West 355 409 32,000  Level Houston Center
Sun 07:30:28 PM 31.2069 -92.5394 297° West 357 411 32,000  Level Houston Center
Sun 07:31:29 PM 31.2522 -92.6428 297° West 358 412 32,000  Level Houston Center
Sun 07:32:31 PM 31.3056 -92.7658 297° West 357 411 32,000  Level Houston Center
Sun 07:33:33 PM 31.3469 -92.8658 296° West 351 404 32,000  Level Houston Center
Sun 07:34:35 PM 31.3903 -92.9692 296° West 351 404 32,000  Level Houston Center
Sun 07:35:37 PM 31.4350 -93.0731 297° West 354 407 32,000  Level Houston Center
Sun 07:36:39 PM 31.4781 -93.1747 296° West 353 406 32,000  Level Houston Center
Sun 07:37:40 PM 31.5217 -93.2772 297° West 352 405 32,000  Level Houston Center
Sun 07:38:42 PM 31.5661 -93.3842 296° West 355 409 32,000  Level Houston Center
Sun 07:39:44 PM 31.6183 -93.5092 296° West 356 410 32,000  Level Houston Center
Sun 07:40:46 PM 31.6622 -93.6133 296° West 357 411 32,000  Level Houston Center
Sun 07:41:48 PM 31.7053 -93.7169 296° West 355 409 32,000  Level Houston Center
Sun 07:42:49 PM 31.7481 -93.8219 296° West 356 410 32,000  Level Houston Center
Sun 07:43:51 PM 31.7708 -93.9350 283° West 358 412 32,000  Level Houston Center
Sun 07:44:53 PM 31.7950 -94.0461 284° West 353 406 32,000  Level Houston Center
Sun 07:45:54 PM 31.8178 -94.1589 283° West 354 407 32,000  Level Houston Center
Sun 07:46:56 PM 31.8442 -94.2922 283° West 353 406 32,000  Level Houston Center
Sun 07:47:58 PM 31.8672 -94.4033 284° West 351 404 32,000  Level Houston Center
Sun 07:49:00 PM 31.8897 -94.5142 283° West 350 403 32,000  Level Houston Center
Sun 07:50:01 PM 31.9114 -94.6267 283° West 352 405 32,000  Level Houston Center
Sun 07:51:03 PM 31.9342 -94.7389 283° West 354 407 32,000  Level Houston Center
Sun 07:52:05 PM 31.9606 -94.8731 283° West 354 407 32,000  Level Houston Center
Sun 07:53:29 PM 31.9925 -95.0283 284° West 347 399 32,000  Level Fort Worth Center
Sun 07:54:31 PM 32.0139 -95.1389 283° West 347 399 32,000 -194 Level Fort Worth Center
Sun 07:55:33 PM 32.0358 -95.2486 283° West 346 398 31,600 -1,355 Descending Fort Worth Center
Sun 07:56:35 PM 32.0553 -95.3606 282° West 348 400 29,200 -2,371 Descending Fort Worth Center
Sun 07:57:37 PM 32.0728 -95.4797 280° West 362 417 26,700 -2,565 Descending Fort Worth Center
Sun 07:58:39 PM 32.0925 -95.6150 280° West 367 422 23,900 -2,565 Descending Fort Worth Center
Sun 07:59:41 PM 32.1106 -95.7281 281° West 356 410 21,400 -2,323 Descending Fort Worth Center
Sun 08:00:43 PM 32.1269 -95.8392 280° West 346 398 19,100 -2,129 Descending Fort Worth Center
Sun 08:01:45 PM 32.1442 -95.9475 281° West 338 389 17,000 -2,081 Descending Fort Worth Center
Sun 08:02:47 PM 32.1603 -96.0506 280° West 323 372 14,800 -2,129 Descending Fort Worth Center
Sun 08:03:49 PM 32.1753 -96.1506 280° West 312 359 12,600 -1,790 Descending Fort Worth Center
Sun 08:04:51 PM 32.1972 -96.2656 283° West 302 348 11,100 -726 Descending Fort Worth Center
Sun 08:05:53 PM 32.2281 -96.3706 289° West 321 369 11,100 -48 Level Fort Worth Center
Sun 08:06:55 PM 32.2536 -96.4683 287° West 312 359 11,000 -774 Descending Fort Worth Center
Sun 08:07:57 PM 32.2767 -96.5528 288° West 275 316 9,500 -968 Descending Fort Worth Center
Sun 08:08:59 PM 32.3122 -96.6414 295° West 277 319 9,000 -968 Descending Fort Worth Center
Sun 08:10:01 PM 32.3467 -96.7189 298° West 268 308 7,500 -1,548 Descending Fort Worth Center
Sun 08:11:03 PM 32.3944 -96.7842 311° West 247 284 5,800 -1,548 Descending Fort Worth Center
Sun 08:12:05 PM 32.4497 -96.8428 318° Northwest 264 304 4,300 -829 Descending Fort Worth Center
Sun 08:13:06 PM 32.4967 -96.9119 309° West 249 287 4,100 -98 Descending Fort Worth Center
Sun 08:14:08 PM 32.5264 -96.9758 299° West 221 254 4,100 -97 Level Fort Worth Center
Sun 08:15:10 PM 32.5506 -97.0317 297° West 209 241 3,900 -484 Descending Fort Worth Center
Sun 08:16:12 PM 32.5850 -97.0989 301° West 207 238 3,100 -387 Descending Fort Worth Center
Sun 08:17:14 PM 32.6133 -97.1528 302° West 193 222 3,100  Level Fort Worth Center
Sun 08:17:50 PM 32.6333 -97.1833 308° West 198 228 3,100 -56 Level Dallas / Fort Worth TRACON
Sun 08:19:01 PM 32.7000 -97.2000 348° North 215 247 3,000 -46 Descending Dallas / Fort Worth TRACON
Sun 08:20:01 PM 32.7667 -97.2333 337° Northwest 217 250 3,000  Level Dallas / Fort Worth TRACON
Sun 08:20:56 PM 32.8167 -97.2500 344° North 221 254 3,000  Level Dallas / Fort Worth TRACON
Sun 08:21:50 PM 32.8667 -97.2667 344° North 218 251 3,000  Level Dallas / Fort Worth TRACON
Sun 08:22:24 PM 32.8900 -97.2872 324° Northwest 211 243 3,000 -646 Level Fort Worth Center
Sun 08:22:55 PM 32.9000 -97.3167 292° West 141 162 2,300 -717 Descending Dallas / Fort Worth TRACON
Sun 08:23:56 PM 32.8833 -97.3500 239° Southwest 131 151 1,900 -387 Descending Dallas / Fort Worth TRACON
Sun 08:24:28 PM 32.8733 -97.3650 232° Southwest 111 128 1,700 -511 Descending Fort Worth Center
Sun 08:25:30 PM 32.8461 -97.3661 182° South 98 113 1,100 -435 Descending Fort Worth Center
Sun 08:26:32 PM 32.8194 -97.3614 172° South 99 114 800 -290 Descending Fort Worth Center

Login

Don't have an account? Register now (free) for customized features, flight alerts, and more!